METAR

METAR

SAPL62 EPRA 201730
METAR EPRA 201730Z 16005KT 2000 BR OVC004 12/12 Q1018=

TAF

TAF

FCPL62 EPRA 201700
TAF EPRA 201730Z 2018/2103 16005KT 3000 BR OVC005
PROB40 TEMPO 2018/2103 0800 -DZ FG OVC003=

Witamy na stronie Radom Meteo

zawsze aktualna prognoza dla pilotów 

W zakresie osłony meteorologicznej realizujemy:

  • wykonywanie pomiarów i obserwacji meteorologicznych;
  • przygotowane prognoz meteorologicznych;
  • opracowywanie ostrzeżeń meteorologicznych;
  • informowanie o warunkach meteorologicznych;
  • dystrybucję informacji meteorologicznych;
  • opracowywanie danych klimatycznych.